Corona Emblem — 3FHF8 — position and weather

sailwx.info

Track history (hours):
 
Tides and Currents Weather Stations Pressure Air Temp Water Temp Dewpoint Dewpoint Depression Visibility Wind Speed Wind Dir Waves Ship Positions

Corona Emblem

Last reported at 2015-Apr-21 13:32 UTC. Time now 2015-Apr-26 15:54 UTC.
Position N 35°49' E 141°04'.

Length 230 m; beam 36 m.

Type: Cargo ship. MMSI: 354224000.

Date/timePositionNaut miles runAvg speedWind from/ knotsBaromVisibWave heightAir tempDewpointWater temp
2015-Apr-21 13:32N 35°49' E 141°04'1212.2
2015-Apr-21 12:33N 36°01' E 141°02'1111.6
2015-Apr-21 11:34N 36°09' E 140°53'1611.6
2015-Apr-21 10:12N 36°22' E 140°41'  
2015-Apr-18 23:33N 36°26' E 140°38'6 6.2
2015-Apr-18 22:33N 36°21' E 140°43'7 6.7
2015-Apr-18 21:32N 36°19' E 140°51'11 8.9
2015-Apr-18 20:19N 36°15' E 141°04'1 0.6
2015-Apr-18 18:32N 36°14' E 141°04'6 0.3
2015-Apr-17 22:08N 36°08' E 141°04'1 0.9
2015-Apr-17 21:11N 36°09' E 141°05'1 0.9
2015-Apr-17 20:26N 36°09' E 141°05'3 1.3
2015-Apr-17 18:29N 36°10' E 141°08'30 0.9
2015-Apr-16 08:07N 36°28' E 141°39'1 1.0
2015-Apr-16 07:33N 36°28' E 141°38'36 2.5
2015-Apr-15 17:28N 36°21' E 140°54'7 7.2
2015-Apr-15 16:32N 36°19' E 140°46'9 9.3
2015-Apr-15 15:30N 36°16' E 140°58'  
Track history (hours):
 
Tides and Currents Weather Stations Pressure Air Temp Water Temp Dewpoint Dewpoint Depression Visibility Wind Speed Wind Dir Waves Ship Positions

Corona Emblem

Last reported at 2015-Apr-21 13:32 UTC. Time now 2015-Apr-26 15:54 UTC.
Position N 35°49' E 141°04'.

Length 230 m; beam 36 m.

Type: Cargo ship. MMSI: 354224000.

Date/timePositionNaut miles runAvg speedWind from/ knotsBaromVisibWave heightAir tempDewpointWater temp
2015-Apr-21 13:32N 35°49' E 141°04'1212.2
2015-Apr-21 12:33N 36°01' E 141°02'1111.6
2015-Apr-21 11:34N 36°09' E 140°53'1611.6
2015-Apr-21 10:12N 36°22' E 140°41'  
2015-Apr-18 23:33N 36°26' E 140°38'6 6.2
2015-Apr-18 22:33N 36°21' E 140°43'7 6.7
2015-Apr-18 21:32N 36°19' E 140°51'11 8.9
2015-Apr-18 20:19N 36°15' E 141°04'1 0.6
2015-Apr-18 18:32N 36°14' E 141°04'6 0.3
2015-Apr-17 22:08N 36°08' E 141°04'1 0.9
2015-Apr-17 21:11N 36°09' E 141°05'1 0.9
2015-Apr-17 20:26N 36°09' E 141°05'3 1.3
2015-Apr-17 18:29N 36°10' E 141°08'30 0.9
2015-Apr-16 08:07N 36°28' E 141°39'1 1.0
2015-Apr-16 07:33N 36°28' E 141°38'36 2.5
2015-Apr-15 17:28N 36°21' E 140°54'7 7.2
2015-Apr-15 16:32N 36°19' E 140°46'9 9.3
2015-Apr-15 15:30N 36°16' E 140°58'  

Dump ship's entire track history